sensor_id;sensor_type;location;lat;lon;timestamp;P1;durP1;ratioP1;P2;durP2;ratioP2
26157;SDS011;67284;44.782;10.282;2023-05-10T00:02:41;14.98;;;10.60;;
26157;SDS011;67284;44.782;10.282;2023-05-10T00:07:33;14.27;;;11.30;;
26157;SDS011;67284;44.782;10.282;2023-05-10T00:12:25;18.33;;;10.68;;
26157;SDS011;67284;44.782;10.282;2023-05-10T00:17:17;13.32;;;10.38;;
26157;SDS011;67284;44.782;10.282;2023-05-10T00:22:09;12.25;;;9.93;;
26157;SDS011;67284;44.782;10.282;2023-05-10T00:27:01;14.70;;;10.25;;
26157;SDS011;67284;44.782;10.282;2023-05-10T00:31:55;12.98;;;9.75;;
26157;SDS011;67284;44.782;10.282;2023-05-10T00:36:47;10.93;;;9.30;;
26157;SDS011;67284;44.782;10.282;2023-05-10T00:41:39;13.63;;;10.05;;
26157;SDS011;67284;44.782;10.282;2023-05-10T00:46:32;12.88;;;10.68;;
26157;SDS011;67284;44.782;10.282;2023-05-10T00:51:24;17.52;;;11.07;;
26157;SDS011;67284;44.782;10.282;2023-05-10T00:56:16;14.80;;;11.43;;
26157;SDS011;67284;44.782;10.282;2023-05-10T01:01:09;17.63;;;12.35;;
26157;SDS011;67284;44.782;10.282;2023-05-10T01:06:01;18.58;;;13.05;;
26157;SDS011;67284;44.782;10.282;2023-05-10T01:10:53;16.23;;;12.43;;
26157;SDS011;67284;44.782;10.282;2023-05-10T01:15:45;22.27;;;14.70;;
26157;SDS011;67284;44.782;10.282;2023-05-10T01:20:40;19.85;;;14.43;;
26157;SDS011;67284;44.782;10.282;2023-05-10T01:42:02;18.95;;;14.27;;
26157;SDS011;67284;44.782;10.282;2023-05-10T01:47:07;20.63;;;15.18;;
26157;SDS011;67284;44.782;10.282;2023-05-10T01:52:06;17.98;;;14.02;;
26157;SDS011;67284;44.782;10.282;2023-05-10T01:57:03;19.02;;;14.43;;
26157;SDS011;67284;44.782;10.282;2023-05-10T02:01:57;19.33;;;14.45;;
26157;SDS011;67284;44.782;10.282;2023-05-10T02:06:51;18.95;;;14.52;;
26157;SDS011;67284;44.782;10.282;2023-05-10T02:11:45;20.45;;;14.98;;
26157;SDS011;67284;44.782;10.282;2023-05-10T02:16:39;18.48;;;13.70;;
26157;SDS011;67284;44.782;10.282;2023-05-10T02:21:32;16.92;;;13.55;;
26157;SDS011;67284;44.782;10.282;2023-05-10T02:26:25;17.35;;;14.75;;
26157;SDS011;67284;44.782;10.282;2023-05-10T02:31:18;19.35;;;14.15;;
26157;SDS011;67284;44.782;10.282;2023-05-10T02:36:11;15.68;;;12.98;;
26157;SDS011;67284;44.782;10.282;2023-05-10T02:41:04;17.13;;;13.18;;
26157;SDS011;67284;44.782;10.282;2023-05-10T02:45:56;15.15;;;12.27;;
26157;SDS011;67284;44.782;10.282;2023-05-10T02:50:48;17.50;;;13.15;;
26157;SDS011;67284;44.782;10.282;2023-05-10T02:55:43;16.70;;;12.68;;
26157;SDS011;67284;44.782;10.282;2023-05-10T03:00:39;12.05;;;10.75;;
26157;SDS011;67284;44.782;10.282;2023-05-10T03:05:31;11.90;;;10.05;;
26157;SDS011;67284;44.782;10.282;2023-05-10T03:10:27;13.93;;;10.93;;
26157;SDS011;67284;44.782;10.282;2023-05-10T03:15:25;12.27;;;9.98;;
26157;SDS011;67284;44.782;10.282;2023-05-10T03:25:40;11.13;;;9.05;;
26157;SDS011;67284;44.782;10.282;2023-05-10T03:30:35;10.50;;;9.00;;
26157;SDS011;67284;44.782;10.282;2023-05-10T03:35:30;14.73;;;9.80;;
26157;SDS011;67284;44.782;10.282;2023-05-10T03:40:22;11.07;;;8.55;;
26157;SDS011;67284;44.782;10.282;2023-05-10T03:45:15;12.75;;;9.63;;
26157;SDS011;67284;44.782;10.282;2023-05-10T03:50:07;10.02;;;8.25;;
26157;SDS011;67284;44.782;10.282;2023-05-10T03:54:59;10.55;;;9.00;;
26157;SDS011;67284;44.782;10.282;2023-05-10T03:59:51;11.45;;;9.18;;
26157;SDS011;67284;44.782;10.282;2023-05-10T04:04:43;13.25;;;9.25;;
26157;SDS011;67284;44.782;10.282;2023-05-10T04:09:35;9.68;;;8.20;;
26157;SDS011;67284;44.782;10.282;2023-05-10T04:14:27;12.25;;;8.65;;
26157;SDS011;67284;44.782;10.282;2023-05-10T04:19:19;9.18;;;8.10;;
26157;SDS011;67284;44.782;10.282;2023-05-10T04:24:11;9.23;;;7.78;;
26157;SDS011;67284;44.782;10.282;2023-05-10T04:29:03;8.98;;;7.85;;
26157;SDS011;67284;44.782;10.282;2023-05-10T04:33:55;11.48;;;7.80;;
26157;SDS011;67284;44.782;10.282;2023-05-10T04:38:47;8.75;;;6.90;;
26157;SDS011;67284;44.782;10.282;2023-05-10T04:43:39;8.68;;;6.85;;
26157;SDS011;67284;44.782;10.282;2023-05-10T04:48:31;9.60;;;7.15;;
26157;SDS011;67284;44.782;10.282;2023-05-10T04:53:23;8.35;;;7.55;;
26157;SDS011;67284;44.782;10.282;2023-05-10T04:58:15;13.68;;;7.88;;
26157;SDS011;67284;44.782;10.282;2023-05-10T05:03:07;8.40;;;7.50;;
26157;SDS011;67284;44.782;10.282;2023-05-10T05:07:58;9.60;;;8.45;;
26157;SDS011;67284;44.782;10.282;2023-05-10T05:12:50;8.57;;;7.03;;
26157;SDS011;67284;44.782;10.282;2023-05-10T05:17:43;9.88;;;7.88;;
26157;SDS011;67284;44.782;10.282;2023-05-10T05:22:38;9.68;;;8.50;;
26157;SDS011;67284;44.782;10.282;2023-05-10T05:27:30;7.97;;;7.15;;
26157;SDS011;67284;44.782;10.282;2023-05-10T05:32:23;7.60;;;6.70;;
26157;SDS011;67284;44.782;10.282;2023-05-10T05:37:16;7.72;;;6.32;;
26157;SDS011;67284;44.782;10.282;2023-05-10T05:42:09;8.82;;;6.90;;
26157;SDS011;67284;44.782;10.282;2023-05-10T05:47:01;8.43;;;6.35;;
26157;SDS011;67284;44.782;10.282;2023-05-10T05:51:53;7.53;;;6.70;;
26157;SDS011;67284;44.782;10.282;2023-05-10T05:56:45;8.52;;;6.78;;
26157;SDS011;67284;44.782;10.282;2023-05-10T06:01:37;8.02;;;6.97;;
26157;SDS011;67284;44.782;10.282;2023-05-10T06:06:28;10.70;;;7.55;;
26157;SDS011;67284;44.782;10.282;2023-05-10T06:11:20;9.40;;;7.97;;
26157;SDS011;67284;44.782;10.282;2023-05-10T06:16:13;9.90;;;7.68;;
26157;SDS011;67284;44.782;10.282;2023-05-10T06:21:05;13.10;;;8.02;;
26157;SDS011;67284;44.782;10.282;2023-05-10T06:25:57;11.07;;;7.88;;
26157;SDS011;67284;44.782;10.282;2023-05-10T06:30:49;8.85;;;7.30;;
26157;SDS011;67284;44.782;10.282;2023-05-10T06:35:41;8.45;;;6.85;;
26157;SDS011;67284;44.782;10.282;2023-05-10T06:40:34;11.07;;;6.90;;
26157;SDS011;67284;44.782;10.282;2023-05-10T06:45:27;9.55;;;8.13;;
26157;SDS011;67284;44.782;10.282;2023-05-10T06:50:19;8.35;;;7.43;;
26157;SDS011;67284;44.782;10.282;2023-05-10T06:55:11;9.75;;;7.82;;
26157;SDS011;67284;44.782;10.282;2023-05-10T07:00:03;9.00;;;7.38;;
26157;SDS011;67284;44.782;10.282;2023-05-10T07:04:57;8.55;;;7.18;;
26157;SDS011;67284;44.782;10.282;2023-05-10T07:09:53;7.78;;;6.93;;
26157;SDS011;67284;44.782;10.282;2023-05-10T07:14:45;7.95;;;7.03;;
26157;SDS011;67284;44.782;10.282;2023-05-10T07:19:38;7.78;;;6.97;;
26157;SDS011;67284;44.782;10.282;2023-05-10T07:24:30;9.90;;;6.25;;
26157;SDS011;67284;44.782;10.282;2023-05-10T07:29:23;9.82;;;7.22;;
26157;SDS011;67284;44.782;10.282;2023-05-10T07:34:15;7.47;;;6.70;;
26157;SDS011;67284;44.782;10.282;2023-05-10T07:39:07;8.73;;;6.97;;
26157;SDS011;67284;44.782;10.282;2023-05-10T07:43:59;8.80;;;6.93;;
26157;SDS011;67284;44.782;10.282;2023-05-10T07:48:51;9.25;;;6.65;;
26157;SDS011;67284;44.782;10.282;2023-05-10T07:53:43;10.85;;;7.60;;
26157;SDS011;67284;44.782;10.282;2023-05-10T07:58:35;8.85;;;7.55;;
26157;SDS011;67284;44.782;10.282;2023-05-10T08:03:26;13.60;;;7.85;;
26157;SDS011;67284;44.782;10.282;2023-05-10T08:08:18;11.25;;;7.05;;
26157;SDS011;67284;44.782;10.282;2023-05-10T08:13:11;10.10;;;6.75;;
26157;SDS011;67284;44.782;10.282;2023-05-10T08:18:06;8.63;;;6.60;;
26157;SDS011;67284;44.782;10.282;2023-05-10T08:22:58;8.20;;;6.07;;
26157;SDS011;67284;44.782;10.282;2023-05-10T08:27:50;8.48;;;6.85;;
26157;SDS011;67284;44.782;10.282;2023-05-10T08:32:42;10.18;;;6.50;;
26157;SDS011;67284;44.782;10.282;2023-05-10T08:37:33;9.45;;;6.57;;
26157;SDS011;67284;44.782;10.282;2023-05-10T08:42:25;7.47;;;6.18;;
26157;SDS011;67284;44.782;10.282;2023-05-10T08:47:21;7.15;;;6.18;;
26157;SDS011;67284;44.782;10.282;2023-05-10T08:52:13;10.90;;;6.03;;
26157;SDS011;67284;44.782;10.282;2023-05-10T08:57:08;7.90;;;5.70;;
26157;SDS011;67284;44.782;10.282;2023-05-10T09:01:59;8.00;;;6.47;;
26157;SDS011;67284;44.782;10.282;2023-05-10T09:06:53;7.85;;;5.50;;
26157;SDS011;67284;44.782;10.282;2023-05-10T09:11:45;8.35;;;5.72;;
26157;SDS011;67284;44.782;10.282;2023-05-10T09:16:37;6.32;;;5.57;;
26157;SDS011;67284;44.782;10.282;2023-05-10T09:21:30;8.65;;;6.05;;
26157;SDS011;67284;44.782;10.282;2023-05-10T09:26:23;6.05;;;5.30;;
26157;SDS011;67284;44.782;10.282;2023-05-10T09:31:15;8.90;;;5.78;;
26157;SDS011;67284;44.782;10.282;2023-05-10T09:36:07;6.80;;;5.43;;
26157;SDS011;67284;44.782;10.282;2023-05-10T09:41:00;7.95;;;5.80;;
26157;SDS011;67284;44.782;10.282;2023-05-10T09:45:54;9.13;;;6.05;;
26157;SDS011;67284;44.782;10.282;2023-05-10T09:50:46;12.88;;;8.75;;
26157;SDS011;67284;44.782;10.282;2023-05-10T09:55:48;11.30;;;8.13;;
26157;SDS011;67284;44.782;10.282;2023-05-10T10:00:42;7.50;;;5.97;;
26157;SDS011;67284;44.782;10.282;2023-05-10T10:05:35;11.95;;;6.47;;
26157;SDS011;67284;44.782;10.282;2023-05-10T10:10:27;6.85;;;5.28;;
26157;SDS011;67284;44.782;10.282;2023-05-10T10:15:23;6.20;;;4.70;;
26157;SDS011;67284;44.782;10.282;2023-05-10T10:20:16;8.23;;;4.72;;
26157;SDS011;67284;44.782;10.282;2023-05-10T10:25:13;7.72;;;5.38;;
26157;SDS011;67284;44.782;10.282;2023-05-10T10:35:11;13.02;;;6.45;;
26157;SDS011;67284;44.782;10.282;2023-05-10T10:40:22;6.65;;;4.32;;
26157;SDS011;67284;44.782;10.282;2023-05-10T10:45:25;6.70;;;4.68;;
26157;SDS011;67284;44.782;10.282;2023-05-10T10:50:17;6.22;;;4.28;;
26157;SDS011;67284;44.782;10.282;2023-05-10T10:55:10;7.03;;;4.63;;
26157;SDS011;67284;44.782;10.282;2023-05-10T11:05:25;5.45;;;4.07;;
26157;SDS011;67284;44.782;10.282;2023-05-10T11:10:20;6.40;;;4.43;;
26157;SDS011;67284;44.782;10.282;2023-05-10T11:15:13;9.45;;;4.80;;
26157;SDS011;67284;44.782;10.282;2023-05-10T11:20:13;5.18;;;4.68;;
26157;SDS011;67284;44.782;10.282;2023-05-10T11:25:06;5.72;;;4.82;;
26157;SDS011;67284;44.782;10.282;2023-05-10T11:29:58;5.10;;;4.43;;
26157;SDS011;67284;44.782;10.282;2023-05-10T11:34:50;7.40;;;5.32;;
26157;SDS011;67284;44.782;10.282;2023-05-10T11:39:45;10.68;;;5.38;;
26157;SDS011;67284;44.782;10.282;2023-05-10T11:44:38;7.90;;;5.20;;
26157;SDS011;67284;44.782;10.282;2023-05-10T11:49:30;6.07;;;5.18;;
26157;SDS011;67284;44.782;10.282;2023-05-10T11:54:22;7.18;;;4.85;;
26157;SDS011;67284;44.782;10.282;2023-05-10T11:59:14;8.18;;;5.70;;
26157;SDS011;67284;44.782;10.282;2023-05-10T12:04:06;6.85;;;5.68;;
26157;SDS011;67284;44.782;10.282;2023-05-10T12:08:59;8.00;;;5.95;;
26157;SDS011;67284;44.782;10.282;2023-05-10T12:13:51;6.47;;;5.05;;
26157;SDS011;67284;44.782;10.282;2023-05-10T12:18:43;6.95;;;5.32;;
26157;SDS011;67284;44.782;10.282;2023-05-10T12:23:36;9.82;;;6.32;;
26157;SDS011;67284;44.782;10.282;2023-05-10T12:28:29;7.18;;;5.72;;
26157;SDS011;67284;44.782;10.282;2023-05-10T12:33:22;8.35;;;5.88;;
26157;SDS011;67284;44.782;10.282;2023-05-10T12:43:25;7.47;;;6.38;;
26157;SDS011;67284;44.782;10.282;2023-05-10T12:48:17;6.30;;;5.70;;
26157;SDS011;67284;44.782;10.282;2023-05-10T12:53:09;9.45;;;6.07;;
26157;SDS011;67284;44.782;10.282;2023-05-10T12:58:01;7.43;;;5.90;;
26157;SDS011;67284;44.782;10.282;2023-05-10T13:02:53;6.70;;;6.00;;
26157;SDS011;67284;44.782;10.282;2023-05-10T13:07:44;7.82;;;5.50;;
26157;SDS011;67284;44.782;10.282;2023-05-10T13:12:36;8.57;;;5.93;;
26157;SDS011;67284;44.782;10.282;2023-05-10T13:17:29;5.68;;;5.07;;
26157;SDS011;67284;44.782;10.282;2023-05-10T13:22:23;5.15;;;4.65;;
26157;SDS011;67284;44.782;10.282;2023-05-10T13:27:30;7.57;;;5.47;;
26157;SDS011;67284;44.782;10.282;2023-05-10T13:32:22;7.75;;;4.97;;
26157;SDS011;67284;44.782;10.282;2023-05-10T13:37:14;4.97;;;4.47;;
26157;SDS011;67284;44.782;10.282;2023-05-10T13:42:06;5.20;;;4.45;;
26157;SDS011;67284;44.782;10.282;2023-05-10T13:46:57;6.85;;;5.00;;
26157;SDS011;67284;44.782;10.282;2023-05-10T13:51:49;6.53;;;5.22;;
26157;SDS011;67284;44.782;10.282;2023-05-10T13:56:42;8.05;;;4.93;;
26157;SDS011;67284;44.782;10.282;2023-05-10T14:01:35;6.82;;;4.80;;
26157;SDS011;67284;44.782;10.282;2023-05-10T14:06:28;7.05;;;5.18;;
26157;SDS011;67284;44.782;10.282;2023-05-10T14:11:19;6.57;;;5.30;;
26157;SDS011;67284;44.782;10.282;2023-05-10T14:16:14;5.63;;;4.90;;
26157;SDS011;67284;44.782;10.282;2023-05-10T14:21:06;6.63;;;5.85;;
26157;SDS011;67284;44.782;10.282;2023-05-10T14:25:58;7.32;;;6.30;;
26157;SDS011;67284;44.782;10.282;2023-05-10T14:30:50;7.97;;;6.07;;
26157;SDS011;67284;44.782;10.282;2023-05-10T14:35:42;8.65;;;7.13;;
26157;SDS011;67284;44.782;10.282;2023-05-10T14:40:34;8.35;;;6.07;;
26157;SDS011;67284;44.782;10.282;2023-05-10T14:45:26;7.03;;;6.15;;
26157;SDS011;67284;44.782;10.282;2023-05-10T14:50:18;8.63;;;7.63;;
26157;SDS011;67284;44.782;10.282;2023-05-10T14:55:27;7.20;;;6.45;;
26157;SDS011;67284;44.782;10.282;2023-05-10T15:00:19;7.72;;;6.15;;
26157;SDS011;67284;44.782;10.282;2023-05-10T15:05:11;7.72;;;6.47;;
26157;SDS011;67284;44.782;10.282;2023-05-10T15:10:04;7.20;;;5.70;;
26157;SDS011;67284;44.782;10.282;2023-05-10T15:14:56;6.88;;;5.68;;
26157;SDS011;67284;44.782;10.282;2023-05-10T15:19:48;6.32;;;5.72;;
26157;SDS011;67284;44.782;10.282;2023-05-10T15:24:40;7.47;;;6.20;;
26157;SDS011;67284;44.782;10.282;2023-05-10T15:29:32;7.65;;;5.80;;
26157;SDS011;67284;44.782;10.282;2023-05-10T15:34:25;8.18;;;6.43;;
26157;SDS011;67284;44.782;10.282;2023-05-10T15:39:19;7.15;;;6.43;;
26157;SDS011;67284;44.782;10.282;2023-05-10T15:44:11;8.07;;;6.55;;
26157;SDS011;67284;44.782;10.282;2023-05-10T15:49:03;9.23;;;6.72;;
26157;SDS011;67284;44.782;10.282;2023-05-10T15:53:55;8.73;;;7.65;;
26157;SDS011;67284;44.782;10.282;2023-05-10T15:58:58;10.20;;;6.82;;
26157;SDS011;67284;44.782;10.282;2023-05-10T16:03:50;7.95;;;6.65;;
26157;SDS011;67284;44.782;10.282;2023-05-10T16:08:41;9.95;;;7.95;;
26157;SDS011;67284;44.782;10.282;2023-05-10T16:13:33;11.10;;;7.20;;
26157;SDS011;67284;44.782;10.282;2023-05-10T16:18:25;11.15;;;8.85;;
26157;SDS011;67284;44.782;10.282;2023-05-10T16:23:17;9.48;;;6.82;;
26157;SDS011;67284;44.782;10.282;2023-05-10T16:28:10;11.57;;;8.25;;
26157;SDS011;67284;44.782;10.282;2023-05-10T16:33:02;9.52;;;7.40;;
26157;SDS011;67284;44.782;10.282;2023-05-10T16:37:54;12.27;;;11.00;;
26157;SDS011;67284;44.782;10.282;2023-05-10T16:42:47;10.90;;;8.65;;
26157;SDS011;67284;44.782;10.282;2023-05-10T16:47:39;11.27;;;8.88;;
26157;SDS011;67284;44.782;10.282;2023-05-10T16:52:31;8.73;;;7.82;;
26157;SDS011;67284;44.782;10.282;2023-05-10T16:57:24;11.70;;;7.03;;
26157;SDS011;67284;44.782;10.282;2023-05-10T17:02:16;8.18;;;6.80;;
26157;SDS011;67284;44.782;10.282;2023-05-10T17:07:08;7.93;;;6.78;;
26157;SDS011;67284;44.782;10.282;2023-05-10T17:12:00;8.35;;;6.65;;
26157;SDS011;67284;44.782;10.282;2023-05-10T17:16:54;9.05;;;7.60;;
26157;SDS011;67284;44.782;10.282;2023-05-10T17:21:46;9.93;;;7.40;;
26157;SDS011;67284;44.782;10.282;2023-05-10T17:26:38;11.55;;;7.22;;
26157;SDS011;67284;44.782;10.282;2023-05-10T17:31:29;9.15;;;7.50;;
26157;SDS011;67284;44.782;10.282;2023-05-10T17:36:23;11.75;;;7.25;;
26157;SDS011;67284;44.782;10.282;2023-05-10T17:41:14;8.82;;;7.18;;
26157;SDS011;67284;44.782;10.282;2023-05-10T17:46:07;8.55;;;7.07;;
26157;SDS011;67284;44.782;10.282;2023-05-10T17:50:59;9.60;;;6.88;;
26157;SDS011;67284;44.782;10.282;2023-05-10T17:55:50;9.57;;;6.20;;
26157;SDS011;67284;44.782;10.282;2023-05-10T18:00:42;10.23;;;7.75;;
26157;SDS011;67284;44.782;10.282;2023-05-10T18:05:35;8.65;;;6.93;;
26157;SDS011;67284;44.782;10.282;2023-05-10T18:10:28;8.18;;;7.10;;
26157;SDS011;67284;44.782;10.282;2023-05-10T18:15:19;8.38;;;7.30;;
26157;SDS011;67284;44.782;10.282;2023-05-10T18:20:11;10.82;;;8.25;;
26157;SDS011;67284;44.782;10.282;2023-05-10T18:25:03;8.45;;;7.53;;
26157;SDS011;67284;44.782;10.282;2023-05-10T18:29:55;10.55;;;8.52;;
26157;SDS011;67284;44.782;10.282;2023-05-10T18:34:47;10.75;;;8.38;;
26157;SDS011;67284;44.782;10.282;2023-05-10T18:39:39;9.68;;;7.47;;
26157;SDS011;67284;44.782;10.282;2023-05-10T18:44:31;10.75;;;7.88;;
26157;SDS011;67284;44.782;10.282;2023-05-10T18:49:23;9.48;;;8.05;;
26157;SDS011;67284;44.782;10.282;2023-05-10T18:54:15;10.00;;;8.23;;
26157;SDS011;67284;44.782;10.282;2023-05-10T18:59:07;9.95;;;8.80;;
26157;SDS011;67284;44.782;10.282;2023-05-10T19:03:59;12.15;;;9.00;;
26157;SDS011;67284;44.782;10.282;2023-05-10T19:08:51;12.48;;;9.00;;
26157;SDS011;67284;44.782;10.282;2023-05-10T19:13:43;12.88;;;10.73;;
26157;SDS011;67284;44.782;10.282;2023-05-10T19:18:36;11.38;;;9.48;;
26157;SDS011;67284;44.782;10.282;2023-05-10T19:23:33;12.65;;;9.85;;
26157;SDS011;67284;44.782;10.282;2023-05-10T19:28:25;13.80;;;10.38;;
26157;SDS011;67284;44.782;10.282;2023-05-10T19:33:17;13.52;;;9.63;;
26157;SDS011;67284;44.782;10.282;2023-05-10T19:38:09;14.50;;;10.27;;
26157;SDS011;67284;44.782;10.282;2023-05-10T19:43:02;12.48;;;9.73;;
26157;SDS011;67284;44.782;10.282;2023-05-10T19:47:54;12.52;;;10.55;;
26157;SDS011;67284;44.782;10.282;2023-05-10T19:52:46;13.10;;;10.18;;
26157;SDS011;67284;44.782;10.282;2023-05-10T19:57:38;11.30;;;9.18;;
26157;SDS011;67284;44.782;10.282;2023-05-10T20:02:30;11.68;;;9.55;;
26157;SDS011;67284;44.782;10.282;2023-05-10T20:07:22;12.45;;;9.85;;
26157;SDS011;67284;44.782;10.282;2023-05-10T20:12:13;11.82;;;9.73;;
26157;SDS011;67284;44.782;10.282;2023-05-10T20:17:05;10.15;;;8.23;;
26157;SDS011;67284;44.782;10.282;2023-05-10T20:21:57;13.90;;;8.60;;
26157;SDS011;67284;44.782;10.282;2023-05-10T20:26:49;13.23;;;9.98;;
26157;SDS011;67284;44.782;10.282;2023-05-10T20:31:41;12.65;;;10.00;;
26157;SDS011;67284;44.782;10.282;2023-05-10T20:36:33;11.02;;;9.43;;
26157;SDS011;67284;44.782;10.282;2023-05-10T20:41:25;12.77;;;8.65;;
26157;SDS011;67284;44.782;10.282;2023-05-10T20:46:17;10.70;;;8.98;;
26157;SDS011;67284;44.782;10.282;2023-05-10T20:51:09;15.90;;;10.52;;
26157;SDS011;67284;44.782;10.282;2023-05-10T20:56:01;13.93;;;8.90;;
26157;SDS011;67284;44.782;10.282;2023-05-10T21:00:52;11.90;;;10.00;;
26157;SDS011;67284;44.782;10.282;2023-05-10T21:05:44;11.10;;;9.52;;
26157;SDS011;67284;44.782;10.282;2023-05-10T21:10:36;11.32;;;8.82;;
26157;SDS011;67284;44.782;10.282;2023-05-10T21:15:28;9.38;;;7.57;;
26157;SDS011;67284;44.782;10.282;2023-05-10T21:20:20;12.23;;;7.82;;
26157;SDS011;67284;44.782;10.282;2023-05-10T21:25:13;8.00;;;6.72;;
26157;SDS011;67284;44.782;10.282;2023-05-10T21:30:05;7.53;;;6.60;;
26157;SDS011;67284;44.782;10.282;2023-05-10T21:34:57;7.38;;;5.60;;
26157;SDS011;67284;44.782;10.282;2023-05-10T21:39:49;6.85;;;5.70;;
26157;SDS011;67284;44.782;10.282;2023-05-10T21:44:43;7.55;;;4.97;;
26157;SDS011;67284;44.782;10.282;2023-05-10T21:49:35;5.70;;;3.97;;
26157;SDS011;67284;44.782;10.282;2023-05-10T21:54:26;4.85;;;4.22;;
26157;SDS011;67284;44.782;10.282;2023-05-10T21:59:18;5.40;;;3.15;;
26157;SDS011;67284;44.782;10.282;2023-05-10T22:04:11;6.80;;;3.80;;
26157;SDS011;67284;44.782;10.282;2023-05-10T22:09:03;3.00;;;2.70;;
26157;SDS011;67284;44.782;10.282;2023-05-10T22:13:55;2.65;;;2.00;;
26157;SDS011;67284;44.782;10.282;2023-05-10T22:18:47;5.75;;;2.05;;
26157;SDS011;67284;44.782;10.282;2023-05-10T22:23:39;3.17;;;1.98;;
26157;SDS011;67284;44.782;10.282;2023-05-10T22:28:31;2.92;;;2.20;;
26157;SDS011;67284;44.782;10.282;2023-05-10T22:33:23;1.70;;;1.25;;
26157;SDS011;67284;44.782;10.282;2023-05-10T22:38:15;1.80;;;1.52;;
26157;SDS011;67284;44.782;10.282;2023-05-10T22:43:07;2.20;;;1.50;;
26157;SDS011;67284;44.782;10.282;2023-05-10T22:47:58;3.00;;;1.30;;
26157;SDS011;67284;44.782;10.282;2023-05-10T22:52:50;4.15;;;1.65;;
26157;SDS011;67284;44.782;10.282;2023-05-10T22:57:42;2.80;;;1.75;;
26157;SDS011;67284;44.782;10.282;2023-05-10T23:02:34;3.70;;;1.70;;
26157;SDS011;67284;44.782;10.282;2023-05-10T23:07:26;6.10;;;2.28;;
26157;SDS011;67284;44.782;10.282;2023-05-10T23:12:18;2.47;;;1.98;;
26157;SDS011;67284;44.782;10.282;2023-05-10T23:17:09;3.10;;;1.75;;
26157;SDS011;67284;44.782;10.282;2023-05-10T23:22:01;2.45;;;1.70;;
26157;SDS011;67284;44.782;10.282;2023-05-10T23:26:53;2.65;;;1.80;;
26157;SDS011;67284;44.782;10.282;2023-05-10T23:31:48;4.13;;;2.15;;
26157;SDS011;67284;44.782;10.282;2023-05-10T23:36:41;4.50;;;2.10;;
26157;SDS011;67284;44.782;10.282;2023-05-10T23:41:33;2.78;;;1.40;;
26157;SDS011;67284;44.782;10.282;2023-05-10T23:46:25;4.53;;;2.33;;
26157;SDS011;67284;44.782;10.282;2023-05-10T23:51:17;2.78;;;1.80;;
26157;SDS011;67284;44.782;10.282;2023-05-10T23:56:09;3.70;;;2.13;;
